createdAt,value
2018-04-29T00:00:58.550Z,58.60
2018-04-29T00:03:32.871Z,59.10
2018-04-29T00:06:07.140Z,57.90
2018-04-29T00:08:42.199Z,59.90
2018-04-29T00:11:16.564Z,59.80
2018-04-29T00:13:50.854Z,59.40
2018-04-29T00:16:25.099Z,59.50
2018-04-29T00:19:00.152Z,59.10
2018-04-29T00:21:34.586Z,59.00
2018-04-29T00:24:09.578Z,59.40
2018-04-29T00:44:46.195Z,59.70
2018-04-29T00:47:20.507Z,60.30
2018-04-29T00:49:54.823Z,59.90
2018-04-29T00:52:29.220Z,59.90
2018-04-29T00:55:03.535Z,60.30
2018-04-29T00:57:37.926Z,60.50
2018-04-29T01:00:12.200Z,59.70
2018-04-29T01:02:46.934Z,59.40
2018-04-29T01:05:21.951Z,59.20
2018-04-29T01:07:50.177Z,59.10
2018-04-29T01:10:18.284Z,59.80
2018-04-29T01:12:46.476Z,60.20
2018-04-29T01:15:14.581Z,59.60
2018-04-29T01:17:42.721Z,59.40
2018-04-29T01:20:10.827Z,59.90
2018-04-29T01:22:38.962Z,59.60
2018-04-29T01:43:09.775Z,58.90
2018-04-29T01:45:37.966Z,59.10
2018-04-29T01:48:06.096Z,59.10
2018-04-29T01:50:34.264Z,58.90
2018-04-29T01:53:02.523Z,58.80
2018-04-29T01:55:31.041Z,58.50
2018-04-29T01:57:59.379Z,59.10
2018-04-29T02:00:28.572Z,58.10
2018-04-29T02:02:56.992Z,58.10
2018-04-29T02:05:26.156Z,58.80
2018-04-29T02:07:54.490Z,58.70
2018-04-29T02:10:23.611Z,59.20
2018-04-29T02:12:51.992Z,59.00
2018-04-29T02:15:20.375Z,59.30
2018-04-29T02:17:48.732Z,59.50
2018-04-29T02:20:17.064Z,60.00
2018-04-29T02:22:45.457Z,59.70
2018-04-29T02:43:16.397Z,60.20
2018-04-29T02:45:45.031Z,61.00
2018-04-29T02:48:13.399Z,61.40
2018-04-29T02:50:41.793Z,61.50
2018-04-29T02:53:10.150Z,61.20
2018-04-29T02:55:38.533Z,61.30
2018-04-29T02:58:06.893Z,61.30
2018-04-29T03:00:35.252Z,61.10
2018-04-29T03:03:03.675Z,61.30
2018-04-29T03:05:32.059Z,61.60
2018-04-29T03:08:00.399Z,61.50
2018-04-29T03:10:28.759Z,61.40
2018-04-29T03:12:57.143Z,61.80
2018-04-29T03:15:25.531Z,61.40
2018-04-29T03:17:53.891Z,61.40
2018-04-29T03:20:23.026Z,61.80
2018-04-29T03:22:51.418Z,61.70
2018-04-29T03:43:21.589Z,61.70
2018-04-29T03:45:49.935Z,61.60
2018-04-29T03:48:18.646Z,62.00
2018-04-29T03:50:47.030Z,61.90
2018-04-29T03:53:15.424Z,61.90
2018-04-29T03:55:43.804Z,61.70
2018-04-29T03:58:23.954Z,61.60
2018-04-29T04:01:04.044Z,61.70
2018-04-29T04:03:44.294Z,61.50
2018-04-29T04:06:12.944Z,61.70
2018-04-29T04:08:41.356Z,61.90
2018-04-29T04:11:09.768Z,62.50
2018-04-29T04:13:38.145Z,61.80
2018-04-29T04:16:06.506Z,61.80
2018-04-29T04:18:34.885Z,61.90
2018-04-29T04:21:03.227Z,61.80
2018-04-29T04:23:31.590Z,61.70
2018-04-29T04:44:02.913Z,62.40
2018-04-29T04:46:31.313Z,62.50
2018-04-29T04:48:59.684Z,62.50
2018-04-29T04:51:28.812Z,62.40
2018-04-29T04:53:57.155Z,62.20
2018-04-29T04:56:25.516Z,61.90
2018-04-29T04:58:53.909Z,61.40
2018-04-29T05:01:22.243Z,62.50
2018-04-29T05:03:50.625Z,62.50
2018-04-29T05:06:19.011Z,62.50
2018-04-29T05:08:47.356Z,62.50
2018-04-29T05:11:16.496Z,62.60
2018-04-29T05:13:44.914Z,62.50
2018-04-29T05:16:13.296Z,62.80
2018-04-29T05:18:41.671Z,62.80
2018-04-29T05:21:10.273Z,63.00
2018-04-29T05:23:38.671Z,63.00
2018-04-29T05:44:11.265Z,64.20
2018-04-29T06:03:14.897Z,63.30
2018-04-29T06:21:38.037Z,64.30
2018-04-29T06:24:23.293Z,63.70
2018-04-29T06:33:35.577Z,63.60
2018-04-29T08:36:23.108Z,54.30
2018-04-29T09:34:18.649Z,48.10
2018-04-29T09:36:48.089Z,46.70
2018-04-29T09:45:45.421Z,47.80
2018-04-29T09:48:14.924Z,45.60
2018-04-29T09:53:58.262Z,47.40
2018-04-29T10:23:21.764Z,46.80
2018-04-29T10:25:50.176Z,45.70
2018-04-29T10:28:19.989Z,44.90
2018-04-29T10:30:55.090Z,46.00
2018-04-29T10:33:31.084Z,48.20
2018-04-29T10:36:01.451Z,47.60
2018-04-29T10:38:31.796Z,47.10
2018-04-29T10:41:00.551Z,46.60
2018-04-29T10:43:30.512Z,45.20
2018-04-29T10:46:01.288Z,44.70
2018-04-29T10:48:30.021Z,43.70
2018-04-29T10:50:58.780Z,43.40
2018-04-29T10:53:27.357Z,41.70
2018-04-29T10:55:56.598Z,41.80
2018-04-29T10:58:25.121Z,41.80
2018-04-29T11:07:49.208Z,43.30
2018-04-29T11:13:33.107Z,42.20
2018-04-29T11:25:12.182Z,41.00
2018-04-29T11:27:42.288Z,39.30
2018-04-29T11:30:10.700Z,36.90
2018-04-29T11:32:39.176Z,36.00
2018-04-29T11:35:07.636Z,40.60
2018-04-29T11:37:36.065Z,40.80
2018-04-29T11:40:04.602Z,40.10
2018-04-29T11:42:34.430Z,38.90
2018-04-29T11:45:04.192Z,39.30
2018-04-29T11:47:34.095Z,38.90
2018-04-29T11:50:02.532Z,38.50
2018-04-29T11:52:37.467Z,39.20
2018-04-29T11:55:05.952Z,36.40
2018-04-29T12:00:15.950Z,36.60
2018-04-29T12:02:44.815Z,36.50
2018-04-29T12:05:13.359Z,40.20
2018-04-29T12:07:43.506Z,37.60
2018-04-29T12:10:12.874Z,38.80
2018-04-29T12:15:18.366Z,36.80
2018-04-29T12:17:46.781Z,37.40
2018-04-29T12:38:15.832Z,37.90
2018-04-29T12:40:44.230Z,38.00
2018-04-29T12:43:12.605Z,34.80
2018-04-29T12:45:43.832Z,37.50
2018-04-29T12:48:14.929Z,36.30
2018-04-29T12:50:47.273Z,36.30
2018-04-29T12:53:15.665Z,35.70
2018-04-29T12:55:44.083Z,35.40
2018-04-29T12:58:12.488Z,34.00
2018-04-29T13:00:40.858Z,34.70
2018-04-29T13:03:09.375Z,35.10
2018-04-29T13:05:37.847Z,34.60
2018-04-29T13:08:06.249Z,36.30
2018-04-29T13:10:34.632Z,34.80
2018-04-29T13:13:03.067Z,34.00
2018-04-29T13:15:31.476Z,36.10
2018-04-29T13:17:59.869Z,35.50
2018-04-29T13:38:29.922Z,35.70
2018-04-29T13:40:58.326Z,33.50
2018-04-29T13:43:26.756Z,38.10
2018-04-29T13:45:55.100Z,33.80
2018-04-29T13:48:23.501Z,37.20
2018-04-29T13:50:52.131Z,35.50
2018-04-29T13:53:20.532Z,33.40
2018-04-29T13:55:48.884Z,33.20
2018-04-29T13:58:17.251Z,33.50
2018-04-29T14:00:45.647Z,34.70
2018-04-29T14:03:14.306Z,33.40
2018-04-29T14:05:43.452Z,33.80
2018-04-29T14:08:11.809Z,33.80
2018-04-29T14:10:40.959Z,33.30
2018-04-29T14:13:09.350Z,33.00
2018-04-29T14:15:37.803Z,33.30
2018-04-29T14:18:06.139Z,33.20
2018-04-29T14:20:34.535Z,34.00
2018-04-29T14:23:02.869Z,32.10
2018-04-29T14:25:31.272Z,32.90
2018-04-29T14:27:59.703Z,32.30
2018-04-29T14:30:28.079Z,32.40
2018-04-29T14:32:56.416Z,33.20
2018-04-29T14:35:24.833Z,33.40
2018-04-29T14:37:53.225Z,34.90
2018-04-29T14:40:21.548Z,34.90
2018-04-29T14:42:49.921Z,34.50
2018-04-29T14:45:18.307Z,34.60
2018-04-29T14:47:46.937Z,35.90
2018-04-29T14:50:15.253Z,36.90
2018-04-29T14:52:44.339Z,35.40
2018-04-29T14:55:12.717Z,35.30
2018-04-29T14:57:41.121Z,36.90
2018-04-29T15:00:09.727Z,36.20
2018-04-29T15:02:38.022Z,34.60
2018-04-29T15:05:06.332Z,36.00
2018-04-29T15:07:34.706Z,35.80
2018-04-29T15:10:02.999Z,36.60
2018-04-29T15:12:32.108Z,36.80
2018-04-29T15:15:00.404Z,36.70
2018-04-29T15:17:28.793Z,36.30
2018-04-29T15:19:58.088Z,36.60
2018-04-29T15:22:26.486Z,36.60
2018-04-29T15:24:54.819Z,37.60
2018-04-29T15:27:23.253Z,36.60
2018-04-29T15:29:51.793Z,36.60
2018-04-29T15:32:20.115Z,36.60
2018-04-29T15:34:49.045Z,36.60
2018-04-29T15:37:18.188Z,36.00
2018-04-29T15:39:46.605Z,36.00
2018-04-29T15:42:14.982Z,34.90
2018-04-29T15:44:43.369Z,36.00
2018-04-29T15:47:11.720Z,35.60
2018-04-29T15:49:40.078Z,34.00
2018-04-29T15:52:09.223Z,33.50
2018-04-29T15:54:37.595Z,33.30
2018-04-29T15:57:06.643Z,35.50
2018-04-29T15:59:35.013Z,34.10
2018-04-29T16:02:04.160Z,34.50
2018-04-29T16:04:33.309Z,33.80
2018-04-29T16:07:01.661Z,33.70
2018-04-29T16:09:30.069Z,33.20
2018-04-29T16:11:58.462Z,34.30
2018-04-29T16:14:27.694Z,35.30
2018-04-29T16:16:56.874Z,34.30
2018-04-29T16:37:25.612Z,33.50
2018-04-29T16:39:54.740Z,33.30
2018-04-29T16:42:23.102Z,33.20
2018-04-29T16:44:51.451Z,33.70
2018-04-29T16:47:19.802Z,34.60
2018-04-29T16:49:48.961Z,31.80
2018-04-29T16:52:17.308Z,31.70
2018-04-29T16:54:46.432Z,32.50
2018-04-29T16:57:15.566Z,32.40
2018-04-29T16:59:43.901Z,32.20
2018-04-29T17:02:12.244Z,33.30
2018-04-29T17:04:40.624Z,33.70
2018-04-29T17:07:08.950Z,32.40
2018-04-29T17:09:38.004Z,32.60
2018-04-29T17:12:06.308Z,30.50
2018-04-29T17:14:35.591Z,32.10
2018-04-29T17:17:04.015Z,36.20
2018-04-29T17:19:44.975Z,34.40
2018-04-29T17:22:13.274Z,32.70
2018-04-29T17:24:41.648Z,35.90
2018-04-29T17:27:10.057Z,35.90
2018-04-29T17:29:39.183Z,34.20
2018-04-29T17:32:08.347Z,34.20
2018-04-29T17:34:37.958Z,34.70
2018-04-29T17:37:08.199Z,34.60
2018-04-29T17:39:37.080Z,34.50
2018-04-29T17:42:05.683Z,36.40
2018-04-29T17:44:34.041Z,35.50
2018-04-29T17:47:02.391Z,35.50
2018-04-29T17:49:30.791Z,35.80
2018-04-29T17:51:59.960Z,35.40
2018-04-29T17:54:28.329Z,35.30
2018-04-29T17:56:56.708Z,36.70
2018-04-29T17:59:25.876Z,41.20
2018-04-29T18:01:54.277Z,41.80
2018-04-29T18:04:23.876Z,41.70
2018-04-29T18:06:52.274Z,40.30
2018-04-29T18:09:20.685Z,39.80
2018-04-29T18:11:49.071Z,38.50
2018-04-29T18:14:17.607Z,37.20
2018-04-29T18:16:45.987Z,35.50
2018-04-29T18:34:14.632Z,36.10
2018-04-29T18:36:43.038Z,36.90
2018-04-29T18:39:11.387Z,35.70
2018-04-29T18:41:39.750Z,35.40
2018-04-29T18:44:08.164Z,35.40
2018-04-29T18:46:36.566Z,35.10
2018-04-29T18:49:04.953Z,36.30
2018-04-29T18:51:34.332Z,36.60
2018-04-29T18:54:02.545Z,36.60
2018-04-29T18:56:30.952Z,36.50
2018-04-29T18:58:59.365Z,36.90
2018-04-29T19:01:27.716Z,36.30
2018-04-29T19:03:56.085Z,35.30
2018-04-29T19:06:24.486Z,36.10
2018-04-29T19:08:53.611Z,36.10
2018-04-29T19:11:21.931Z,36.10
2018-04-29T19:13:50.297Z,37.70
2018-04-29T19:16:19.031Z,37.10
2018-04-29T19:18:47.680Z,38.00
2018-04-29T19:21:16.050Z,38.70
2018-04-29T19:23:44.419Z,37.90
2018-04-29T19:26:13.509Z,37.50
2018-04-29T19:28:41.890Z,38.40
2018-04-29T19:31:11.041Z,37.30
2018-04-29T19:33:39.417Z,37.20
2018-04-29T19:36:07.809Z,37.70
2018-04-29T19:38:36.271Z,39.10
2018-04-29T19:41:04.557Z,38.10
2018-04-29T19:43:32.898Z,38.00
2018-04-29T19:46:01.288Z,38.10
2018-04-29T19:48:30.481Z,38.60
2018-04-29T19:50:58.856Z,38.60
2018-04-29T19:53:27.478Z,39.30
2018-04-29T19:55:55.841Z,40.60
2018-04-29T19:58:24.248Z,40.40
2018-04-29T20:00:52.662Z,39.70
2018-04-29T20:03:21.790Z,37.50
2018-04-29T20:05:50.971Z,37.60
2018-04-29T20:08:19.361Z,37.50
2018-04-29T20:10:47.867Z,38.40
2018-04-29T20:13:16.350Z,37.60
2018-04-29T20:15:44.772Z,39.70
2018-04-29T20:18:13.189Z,39.80
2018-04-29T20:23:53.430Z,41.60
2018-04-29T20:26:21.852Z,41.40
2018-04-29T20:28:50.203Z,39.80
2018-04-29T20:31:19.360Z,39.40
2018-04-29T20:33:47.710Z,39.40
2018-04-29T20:36:16.035Z,39.70
2018-04-29T20:38:44.434Z,39.30
2018-04-29T20:41:12.839Z,40.00
2018-04-29T20:43:41.213Z,40.50
2018-04-29T20:46:09.590Z,39.50
2018-04-29T20:48:37.964Z,39.50
2018-04-29T20:51:06.321Z,37.60
2018-04-29T20:53:34.720Z,38.00
2018-04-29T20:56:03.140Z,39.20
2018-04-29T20:58:32.257Z,37.50
2018-04-29T21:01:00.598Z,37.50
2018-04-29T21:03:28.943Z,39.30
2018-04-29T21:05:57.300Z,39.90
2018-04-29T21:08:25.628Z,39.40
2018-04-29T21:10:54.733Z,40.20
2018-04-29T21:13:23.875Z,41.20
2018-04-29T21:15:52.759Z,41.20
2018-04-29T21:18:21.120Z,41.90
2018-04-29T21:20:49.455Z,42.00
2018-04-29T21:23:17.831Z,41.80
2018-04-29T21:25:46.198Z,41.90
2018-04-29T21:28:14.561Z,42.00
2018-04-29T21:30:42.896Z,42.90
2018-04-29T21:33:11.269Z,42.60
2018-04-29T21:35:40.592Z,42.60
2018-04-29T21:38:08.959Z,42.50
2018-04-29T21:40:37.273Z,43.40
2018-04-29T21:43:05.633Z,44.00
2018-04-29T21:45:34.014Z,44.70
2018-04-29T21:48:03.156Z,43.50
2018-04-29T21:50:31.491Z,43.40
2018-04-29T21:52:59.807Z,43.50
2018-04-29T21:55:28.292Z,44.00
2018-04-29T21:57:56.663Z,43.50
2018-04-29T22:00:24.987Z,44.00
2018-04-29T22:02:53.331Z,43.20
2018-04-29T22:05:22.454Z,43.70
2018-04-29T22:07:50.815Z,43.70
2018-04-29T22:10:20.080Z,42.30
2018-04-29T22:12:48.452Z,42.20
2018-04-29T22:15:16.795Z,42.90
2018-04-29T22:17:45.125Z,42.30
2018-04-29T22:20:25.203Z,42.20
2018-04-29T22:22:53.550Z,43.10
2018-04-29T22:25:22.164Z,46.20
2018-04-29T22:27:51.303Z,50.00
2018-04-29T22:30:19.655Z,49.90
2018-04-29T22:32:48.052Z,50.00
2018-04-29T22:35:16.349Z,50.40
2018-04-29T22:37:44.675Z,50.20
2018-04-29T22:40:12.994Z,49.90
2018-04-29T22:42:41.386Z,49.40
2018-04-29T22:45:10.496Z,49.60
2018-04-29T22:47:38.815Z,49.50
2018-04-29T22:50:07.114Z,49.40
2018-04-29T22:52:35.464Z,50.00
2018-04-29T22:55:03.901Z,50.80
2018-04-29T22:57:32.209Z,51.40
2018-04-29T23:00:00.595Z,51.70
2018-04-29T23:02:28.968Z,52.00
2018-04-29T23:04:57.880Z,52.30
2018-04-29T23:07:26.258Z,52.10
2018-04-29T23:09:54.706Z,51.10
2018-04-29T23:12:23.028Z,51.00
2018-04-29T23:14:51.367Z,49.90
2018-04-29T23:17:19.830Z,49.60
2018-04-29T23:23:09.484Z,47.70
2018-04-29T23:25:37.828Z,47.60
2018-04-29T23:28:06.144Z,47.80
2018-04-29T23:30:34.453Z,48.20
2018-04-29T23:33:02.859Z,48.60
2018-04-29T23:35:31.192Z,48.80
2018-04-29T23:38:00.290Z,49.10
2018-04-29T23:40:29.390Z,49.10
2018-04-29T23:42:58.072Z,49.10
2018-04-29T23:45:26.425Z,49.20
2018-04-29T23:47:54.806Z,48.20
2018-04-29T23:50:23.127Z,47.60
2018-04-29T23:52:51.480Z,47.30
2018-04-29T23:55:20.080Z,47.20
2018-04-29T23:57:48.427Z,47.20
